createdAt,value
2018-12-14T00:04:40.336Z,15.40
2018-12-14T00:07:08.688Z,15.00
2018-12-14T00:09:37.055Z,15.33
2018-12-14T00:12:05.707Z,17.13
2018-12-14T00:14:34.159Z,17.03
2018-12-14T00:17:02.531Z,18.27
2018-12-14T00:19:30.879Z,22.30
2018-12-14T00:21:59.258Z,19.97
2018-12-14T00:24:27.635Z,18.90
2018-12-14T00:26:56.115Z,17.50
2018-12-14T00:29:24.466Z,18.00
2018-12-14T00:31:52.839Z,16.37
2018-12-14T00:34:21.194Z,15.87
2018-12-14T00:36:49.572Z,15.50
2018-12-14T00:39:17.919Z,14.70
2018-12-14T00:41:51.738Z,13.97
2018-12-14T00:44:16.666Z,13.83
2018-12-14T00:46:45.168Z,15.57
2018-12-14T00:49:13.527Z,13.10
2018-12-14T00:51:41.931Z,13.00
2018-12-14T00:54:10.365Z,11.60
2018-12-14T00:56:38.745Z,10.23
2018-12-14T00:59:07.097Z,11.60
2018-12-14T01:01:35.587Z,11.60
2018-12-14T01:04:03.940Z,10.80
2018-12-14T01:06:32.334Z,10.77
2018-12-14T01:09:00.687Z,12.00
2018-12-14T01:11:29.059Z,11.40
2018-12-14T01:13:57.433Z,11.03
2018-12-14T01:16:25.888Z,12.33
2018-12-14T01:18:54.267Z,12.37
2018-12-14T01:21:22.639Z,10.90
2018-12-14T01:23:51.024Z,11.77
2018-12-14T01:26:19.371Z,12.03
2018-12-14T01:28:47.746Z,13.30
2018-12-14T01:31:16.099Z,13.60
2018-12-14T01:33:44.589Z,12.80
2018-12-14T01:36:12.942Z,15.10
2018-12-14T01:38:41.336Z,14.10
2018-12-14T01:41:09.724Z,14.67
2018-12-14T01:43:38.102Z,14.50
2018-12-14T01:46:06.500Z,11.80
2018-12-14T01:48:34.881Z,12.47
2018-12-14T01:51:03.251Z,13.90
2018-12-14T01:53:31.695Z,13.10
2018-12-14T01:56:00.125Z,16.97
2018-12-14T01:58:28.529Z,16.07
2018-12-14T02:00:56.880Z,20.60
2018-12-14T02:03:25.281Z,22.80
2018-12-14T02:05:53.644Z,29.33
2018-12-14T02:08:22.026Z,29.90
2018-12-14T02:10:50.377Z,23.00
2018-12-14T02:13:18.770Z,25.50
2018-12-14T02:15:47.247Z,18.00
2018-12-14T02:18:15.717Z,14.63
2018-12-14T02:20:44.079Z,14.63
2018-12-14T02:23:12.463Z,12.60
2018-12-14T02:25:40.823Z,13.93
2018-12-14T02:28:09.202Z,13.27
2018-12-14T02:30:41.840Z,14.67
2018-12-14T02:33:10.846Z,14.80
2018-12-14T02:35:39.156Z,14.80
2018-12-14T02:38:07.495Z,14.77
2018-12-14T02:40:36.034Z,13.47
2018-12-14T02:43:04.535Z,14.27
2018-12-14T02:45:32.861Z,14.20
2018-12-14T02:48:01.403Z,13.73
2018-12-14T02:50:30.111Z,14.83
2018-12-14T02:52:58.456Z,11.23
2018-12-14T02:55:27.750Z,13.60
2018-12-14T02:57:56.284Z,15.17
2018-12-14T03:00:24.625Z,14.20
2018-12-14T03:02:52.967Z,15.37
2018-12-14T03:05:21.280Z,14.30
2018-12-14T03:07:49.682Z,16.87
2018-12-14T03:10:18.072Z,17.27
2018-12-14T03:12:46.377Z,16.27
2018-12-14T03:15:14.899Z,16.60
2018-12-14T03:17:43.306Z,15.77
2018-12-14T03:20:12.121Z,16.50
2018-12-14T03:22:40.661Z,16.80
2018-12-14T03:25:08.990Z,16.90
2018-12-14T03:27:37.288Z,16.10
2018-12-14T03:30:07.728Z,15.83
2018-12-14T03:32:36.188Z,16.73
2018-12-14T03:35:05.587Z,16.33
2018-12-14T03:37:33.991Z,16.57
2018-12-14T03:40:02.518Z,15.83
2018-12-14T03:42:34.373Z,17.30
2018-12-14T03:45:01.251Z,17.13
2018-12-14T03:47:29.615Z,17.30
2018-12-14T03:49:57.936Z,16.60
2018-12-14T03:52:26.546Z,16.60
2018-12-14T03:54:54.952Z,17.57
2018-12-14T03:57:23.272Z,16.33
2018-12-14T03:59:51.602Z,16.70
2018-12-14T04:02:19.925Z,17.87
2018-12-14T04:04:48.362Z,17.07
2018-12-14T04:07:17.097Z,16.67
2018-12-14T04:09:45.434Z,17.97
2018-12-14T04:12:13.870Z,19.30
2018-12-14T04:14:42.387Z,19.93
2018-12-14T04:17:10.711Z,17.07
2018-12-14T04:19:39.029Z,19.93
2018-12-14T04:22:07.576Z,17.53
2018-12-14T04:24:35.938Z,18.97
2018-12-14T04:27:04.313Z,19.40
2018-12-14T04:29:32.740Z,18.93
2018-12-14T04:32:01.241Z,17.80
2018-12-14T04:34:29.587Z,18.90
2018-12-14T04:36:58.057Z,20.13
2018-12-14T04:39:26.377Z,18.90
2018-12-14T04:41:54.991Z,15.80
2018-12-14T04:44:23.340Z,15.60
2018-12-14T04:46:51.667Z,16.33
2018-12-14T04:49:20.081Z,14.33
2018-12-14T04:51:48.445Z,15.70
2018-12-14T04:54:16.757Z,14.47
2018-12-14T04:56:45.054Z,14.50
2018-12-14T04:59:13.415Z,16.10
2018-12-14T05:01:41.731Z,16.30
2018-12-14T05:04:10.111Z,16.30
2018-12-14T05:06:38.707Z,17.77
2018-12-14T05:09:07.054Z,15.20
2018-12-14T05:11:35.363Z,17.20
2018-12-14T05:14:03.948Z,17.60
2018-12-14T05:16:32.273Z,17.10
2018-12-14T05:19:00.637Z,18.67
2018-12-14T05:21:29.123Z,20.93
2018-12-14T05:23:57.463Z,18.70
2018-12-14T05:26:25.806Z,19.57
2018-12-14T05:28:54.331Z,20.00
2018-12-14T05:31:22.641Z,20.37
2018-12-14T05:33:51.008Z,18.80
2018-12-14T05:36:19.472Z,22.10
2018-12-14T05:38:47.790Z,20.73
2018-12-14T05:41:16.107Z,21.20
2018-12-14T05:43:44.504Z,20.23
2018-12-14T05:46:12.827Z,20.87
2018-12-14T05:48:41.156Z,21.40
2018-12-14T05:51:09.480Z,21.63
2018-12-14T05:53:37.796Z,20.47
2018-12-14T05:56:06.111Z,19.40
2018-12-14T05:58:34.672Z,20.23
2018-12-14T06:01:03.009Z,21.57
2018-12-14T06:03:31.335Z,22.57
2018-12-14T06:05:59.816Z,22.67
2018-12-14T06:08:28.131Z,20.90
2018-12-14T06:10:56.439Z,21.27
2018-12-14T06:13:24.756Z,21.70
2018-12-14T06:15:53.075Z,21.37
2018-12-14T06:18:21.390Z,22.57
2018-12-14T06:20:49.722Z,20.23
2018-12-14T06:23:18.039Z,20.27
2018-12-14T06:25:46.352Z,21.33
2018-12-14T06:28:14.691Z,20.47
2018-12-14T06:30:43.015Z,17.67
2018-12-14T06:33:11.323Z,18.60
2018-12-14T06:35:39.962Z,18.13
2018-12-14T06:38:08.323Z,18.07
2018-12-14T06:40:36.622Z,16.70
2018-12-14T06:43:04.970Z,19.10
2018-12-14T06:45:33.296Z,19.23
2018-12-14T06:48:01.650Z,16.17
2018-12-14T06:50:31.668Z,20.33
2018-12-14T06:53:00.675Z,18.87
2018-12-14T06:55:29.176Z,19.07
2018-12-14T06:57:57.649Z,19.13
2018-12-14T07:00:26.016Z,19.73
2018-12-14T07:02:54.367Z,19.30
2018-12-14T07:05:22.924Z,18.60
2018-12-14T07:07:51.250Z,20.90
2018-12-14T07:10:19.566Z,18.37
2018-12-14T07:12:47.935Z,15.80
2018-12-14T07:15:16.240Z,16.80
2018-12-14T07:17:44.563Z,19.20
2018-12-14T07:20:12.936Z,19.40
2018-12-14T07:22:41.245Z,19.33
2018-12-14T07:25:09.557Z,17.67
2018-12-14T07:27:37.883Z,20.10
2018-12-14T07:30:06.374Z,16.30
2018-12-14T07:32:34.689Z,17.90
2018-12-14T07:35:03.019Z,16.40
2018-12-14T07:37:31.330Z,18.53
2018-12-14T07:39:59.692Z,18.73
2018-12-14T07:42:28.039Z,16.10
2018-12-14T07:44:56.423Z,19.27
2018-12-14T07:47:24.977Z,20.77
2018-12-14T07:49:53.452Z,21.70
2018-12-14T07:52:21.787Z,20.10
2018-12-14T07:54:50.099Z,21.50
2018-12-14T07:57:18.449Z,18.70
2018-12-14T07:59:46.862Z,22.03
2018-12-14T08:02:15.179Z,20.10
2018-12-14T08:04:43.577Z,18.13
2018-12-14T08:07:12.138Z,18.40
2018-12-14T08:09:40.530Z,19.10
2018-12-14T08:12:08.839Z,19.00
2018-12-14T08:14:37.181Z,19.40
2018-12-14T08:17:05.496Z,20.47
2018-12-14T08:19:33.827Z,21.70
2018-12-14T08:22:02.148Z,20.93
2018-12-14T08:24:30.543Z,19.03
2018-12-14T08:26:58.871Z,21.30
2018-12-14T08:29:27.224Z,20.17
2018-12-14T08:31:55.563Z,19.33
2018-12-14T08:34:23.866Z,21.03
2018-12-14T08:36:52.196Z,20.97
2018-12-14T08:39:20.508Z,18.10
2018-12-14T08:41:48.841Z,18.63
2018-12-14T08:44:17.167Z,19.30
2018-12-14T08:46:45.513Z,18.23
2018-12-14T08:49:13.862Z,17.70
2018-12-14T08:51:42.208Z,19.37
2018-12-14T08:54:10.519Z,18.63
2018-12-14T08:56:38.862Z,19.03
2018-12-14T08:59:07.168Z,19.30
2018-12-14T09:01:35.497Z,19.40
2018-12-14T09:04:03.863Z,18.27
2018-12-14T09:06:32.187Z,17.73
2018-12-14T09:09:00.542Z,17.97
2018-12-14T09:11:28.863Z,18.90
2018-12-14T09:13:57.160Z,18.37
2018-12-14T09:16:25.483Z,20.60
2018-12-14T09:18:53.799Z,17.90
2018-12-14T09:21:22.181Z,16.57
2018-12-14T09:23:50.480Z,17.30
2018-12-14T09:26:18.871Z,17.10
2018-12-14T09:28:47.544Z,15.93
2018-12-14T09:31:16.820Z,18.33
2018-12-14T09:33:45.203Z,16.90
2018-12-14T09:36:13.555Z,18.50
2018-12-14T09:38:41.868Z,16.37
2018-12-14T09:41:16.031Z,16.70
2018-12-14T09:43:40.560Z,16.57
2018-12-14T09:46:08.898Z,17.50
2018-12-14T09:48:37.197Z,14.60
2018-12-14T09:51:12.052Z,14.77
2018-12-14T09:53:35.955Z,17.23
2018-12-14T09:56:04.267Z,15.83
2018-12-14T09:58:32.591Z,15.70
2018-12-14T10:01:00.908Z,15.23
2018-12-14T10:03:29.516Z,13.60
2018-12-14T10:05:57.836Z,15.10
2018-12-14T10:08:26.239Z,13.83
2018-12-14T10:10:55.011Z,15.97
2018-12-14T10:13:23.511Z,14.73
2018-12-14T10:15:53.082Z,9.67
2018-12-14T10:18:21.400Z,15.20
2018-12-14T10:20:49.716Z,15.03
2018-12-14T10:23:18.033Z,13.47
2018-12-14T10:25:46.379Z,16.07
2018-12-14T10:28:14.782Z,14.07
2018-12-14T10:30:43.096Z,15.10
2018-12-14T10:33:11.446Z,13.67
2018-12-14T10:35:39.763Z,13.80
2018-12-14T10:38:08.121Z,13.10
2018-12-14T10:40:36.530Z,10.73
2018-12-14T10:43:04.867Z,13.10
2018-12-14T10:45:33.295Z,11.47
2018-12-14T10:48:01.645Z,13.03
2018-12-14T10:50:38.718Z,11.43
2018-12-14T10:55:41.031Z,11.50
2018-12-14T10:58:09.360Z,11.47
2018-12-14T11:00:43.338Z,10.27
2018-12-14T11:03:11.848Z,10.17
2018-12-14T11:05:40.151Z,9.87
2018-12-14T11:08:08.559Z,11.00
2018-12-14T11:10:36.946Z,9.60
2018-12-14T11:13:05.401Z,9.77
2018-12-14T11:15:33.890Z,8.20
2018-12-14T11:18:02.249Z,11.03
2018-12-14T11:20:30.569Z,9.60
2018-12-14T11:22:58.943Z,9.77
2018-12-14T11:25:27.366Z,9.63
2018-12-14T11:27:55.727Z,14.13
2018-12-14T11:30:24.274Z,11.20
2018-12-14T11:32:52.650Z,10.20
2018-12-14T11:35:21.099Z,9.50
2018-12-14T11:37:49.496Z,10.00
2018-12-14T11:40:17.967Z,10.20
2018-12-14T11:42:46.466Z,10.07
2018-12-14T11:45:14.835Z,9.20
2018-12-14T11:47:43.261Z,12.37
2018-12-14T11:50:11.722Z,8.73
2018-12-14T11:52:40.096Z,10.33
2018-12-14T11:55:08.529Z,10.70
2018-12-14T11:57:36.926Z,10.70
2018-12-14T12:00:08.728Z,10.00
2018-12-14T12:02:42.882Z,9.60
2018-12-14T12:05:07.607Z,11.40
2018-12-14T12:07:35.942Z,8.63
2018-12-14T12:10:07.438Z,8.97
2018-12-14T12:12:36.078Z,8.73
2018-12-14T12:15:04.879Z,10.90
2018-12-14T12:17:33.953Z,9.77
2018-12-14T12:20:02.335Z,9.47
2018-12-14T12:22:30.644Z,10.73
2018-12-14T12:24:58.974Z,11.50
2018-12-14T12:27:27.429Z,7.43
2018-12-14T12:29:55.823Z,10.20
2018-12-14T12:32:24.155Z,8.90
2018-12-14T12:34:52.471Z,9.57
2018-12-14T12:37:20.863Z,9.33
2018-12-14T12:39:49.205Z,8.73
2018-12-14T12:42:17.540Z,9.50
2018-12-14T12:44:45.909Z,8.47
2018-12-14T12:47:14.228Z,9.10
2018-12-14T12:49:42.546Z,10.87
2018-12-14T12:52:10.935Z,9.83
2018-12-14T12:54:39.262Z,13.07
2018-12-14T12:57:07.583Z,13.27
2018-12-14T12:59:36.484Z,9.37
2018-12-14T13:02:04.849Z,10.33
2018-12-14T13:04:33.600Z,10.53
2018-12-14T13:07:01.916Z,10.20
2018-12-14T13:09:30.225Z,9.50
2018-12-14T13:11:58.671Z,12.07
2018-12-14T13:14:26.973Z,11.80
2018-12-14T13:16:55.339Z,12.63
2018-12-14T13:19:23.654Z,12.10
2018-12-14T13:21:52.171Z,13.80
2018-12-14T13:24:20.555Z,13.30
2018-12-14T13:26:48.896Z,12.67
2018-12-14T13:29:17.202Z,11.87
2018-12-14T13:31:45.703Z,13.27
2018-12-14T13:34:14.012Z,11.53
2018-12-14T13:36:42.348Z,9.80
2018-12-14T13:39:10.665Z,11.90
2018-12-14T13:41:39.209Z,9.27
2018-12-14T13:44:07.662Z,9.80
2018-12-14T13:46:35.975Z,7.67
2018-12-14T13:49:04.360Z,9.13
2018-12-14T13:51:32.792Z,6.70
2018-12-14T13:54:01.099Z,7.53
2018-12-14T13:56:29.505Z,8.70
2018-12-14T13:58:57.815Z,8.37
2018-12-14T14:01:26.345Z,8.33
2018-12-14T14:03:54.718Z,9.17
2018-12-14T14:06:23.069Z,10.40
2018-12-14T14:08:51.427Z,14.50
2018-12-14T14:11:19.763Z,10.20
2018-12-14T14:13:48.231Z,9.97
2018-12-14T14:16:16.578Z,9.10
2018-12-14T14:18:44.881Z,11.60
2018-12-14T14:21:13.227Z,13.43
2018-12-14T14:23:41.559Z,16.67
2018-12-14T14:26:09.935Z,11.60
2018-12-14T14:28:38.263Z,13.60
2018-12-14T14:31:06.742Z,12.50
2018-12-14T14:33:35.214Z,12.20
2018-12-14T14:36:03.542Z,21.07
2018-12-14T14:38:32.087Z,16.20
2018-12-14T14:41:00.389Z,15.27
2018-12-14T14:43:28.720Z,15.63
2018-12-14T14:45:57.075Z,15.77
2018-12-14T14:48:25.430Z,15.47
2018-12-14T14:50:53.815Z,17.33
2018-12-14T14:53:22.261Z,17.13
2018-12-14T14:55:50.577Z,18.23
2018-12-14T14:58:18.954Z,17.80
2018-12-14T15:00:47.333Z,17.97
2018-12-14T15:03:15.665Z,15.73
2018-12-14T15:05:43.982Z,16.93
2018-12-14T15:08:12.371Z,17.93
2018-12-14T15:10:40.679Z,17.33
2018-12-14T15:13:09.000Z,20.80
2018-12-14T15:15:37.315Z,20.90
2018-12-14T15:18:05.648Z,20.60
2018-12-14T15:20:34.087Z,21.57
2018-12-14T15:23:02.429Z,18.70
2018-12-14T15:25:30.731Z,20.80
2018-12-14T15:27:59.112Z,19.43
2018-12-14T15:30:27.452Z,18.20
2018-12-14T15:32:55.847Z,20.07
2018-12-14T15:35:24.277Z,20.80
2018-12-14T15:37:52.606Z,20.90
2018-12-14T15:40:20.908Z,20.60
2018-12-14T15:42:49.250Z,21.67
2018-12-14T15:45:17.555Z,21.67
2018-12-14T15:47:45.931Z,21.50
2018-12-14T15:50:14.296Z,20.80
2018-12-14T15:52:42.673Z,25.73
2018-12-14T15:55:10.976Z,21.50
2018-12-14T15:57:39.332Z,22.07
2018-12-14T16:00:08.807Z,23.23
2018-12-14T16:02:37.137Z,21.90
2018-12-14T16:05:06.581Z,22.87
2018-12-14T16:07:34.932Z,21.80
2018-12-14T16:10:04.014Z,21.17
2018-12-14T16:12:32.358Z,22.00
2018-12-14T16:15:00.676Z,23.27
2018-12-14T16:17:29.157Z,20.83
2018-12-14T16:19:57.676Z,23.47
2018-12-14T16:22:25.989Z,22.07
2018-12-14T16:24:54.411Z,24.23
2018-12-14T16:27:23.057Z,23.70
2018-12-14T16:29:51.395Z,22.30
2018-12-14T16:32:19.735Z,22.60
2018-12-14T16:34:48.054Z,20.93
2018-12-14T16:37:16.564Z,22.10
2018-12-14T16:39:44.886Z,22.37
2018-12-14T16:42:13.195Z,22.47
2018-12-14T16:44:41.588Z,22.37
2018-12-14T16:47:09.903Z,23.90
2018-12-14T16:49:38.242Z,24.37
2018-12-14T16:52:06.567Z,21.10
2018-12-14T16:54:34.918Z,20.60
2018-12-14T16:57:03.251Z,24.30
2018-12-14T16:59:31.715Z,22.63
2018-12-14T17:02:00.067Z,23.43
2018-12-14T17:04:28.434Z,23.77
2018-12-14T17:06:56.773Z,25.73
2018-12-14T17:09:25.182Z,24.77
2018-12-14T17:11:53.494Z,23.47
2018-12-14T17:14:21.824Z,24.30
2018-12-14T17:16:50.178Z,23.60
2018-12-14T17:19:18.505Z,25.70
2018-12-14T17:21:46.827Z,24.83
2018-12-14T17:24:15.155Z,23.60
2018-12-14T17:26:43.514Z,26.97
2018-12-14T17:29:11.871Z,25.93
2018-12-14T17:31:40.274Z,25.70
2018-12-14T17:34:08.568Z,25.43
2018-12-14T17:36:38.204Z,23.60
2018-12-14T17:39:07.036Z,23.87
2018-12-14T17:41:35.384Z,22.60
2018-12-14T17:44:03.781Z,25.90
2018-12-14T17:46:32.564Z,27.40
2018-12-14T17:49:00.882Z,25.30
2018-12-14T17:51:29.266Z,23.37
2018-12-14T17:53:57.576Z,24.30
2018-12-14T17:56:25.994Z,25.83
2018-12-14T17:58:54.413Z,25.10
2018-12-14T18:01:22.747Z,25.33
2018-12-14T18:03:51.061Z,25.67
2018-12-14T18:06:19.382Z,26.87
2018-12-14T18:08:47.714Z,27.93
2018-12-14T18:11:16.096Z,27.97
2018-12-14T18:13:44.472Z,24.90
2018-12-14T18:16:12.811Z,28.23
2018-12-14T18:18:51.497Z,30.10
2018-12-14T18:21:19.867Z,27.90
2018-12-14T18:23:48.174Z,26.17
2018-12-14T18:26:16.487Z,26.80
2018-12-14T18:28:44.901Z,28.80
2018-12-14T18:31:13.238Z,27.30
2018-12-14T18:33:41.549Z,26.77
2018-12-14T18:36:09.874Z,28.70
2018-12-14T18:38:38.176Z,28.13
2018-12-14T18:41:06.517Z,26.80
2018-12-14T18:43:34.823Z,27.70
2018-12-14T18:46:03.344Z,26.57
2018-12-14T18:48:31.659Z,28.20
2018-12-14T18:50:59.962Z,27.07
2018-12-14T18:53:28.475Z,28.13
2018-12-14T18:55:56.801Z,25.40
2018-12-14T18:58:25.131Z,24.03
2018-12-14T19:00:53.448Z,28.30
2018-12-14T19:03:21.987Z,28.30
2018-12-14T19:05:50.471Z,27.97
2018-12-14T19:08:18.903Z,24.90
2018-12-14T19:10:47.328Z,27.77
2018-12-14T19:13:15.826Z,27.77
2018-12-14T19:15:44.151Z,28.17
2018-12-14T19:18:12.518Z,28.60
2018-12-14T19:20:40.811Z,28.40
2018-12-14T19:23:09.140Z,28.20
2018-12-14T19:25:37.491Z,28.37
2018-12-14T19:28:05.881Z,28.40
2018-12-14T19:30:34.261Z,28.73
2018-12-14T19:33:02.639Z,26.23
2018-12-14T19:35:30.950Z,29.70
2018-12-14T19:37:59.285Z,26.97
2018-12-14T19:40:27.616Z,21.70
2018-12-14T19:42:56.038Z,27.80
2018-12-14T19:45:24.346Z,30.10
2018-12-14T19:47:52.704Z,28.53
2018-12-14T19:50:21.022Z,28.17
2018-12-14T19:52:49.385Z,26.80
2018-12-14T19:55:18.953Z,29.37
2018-12-14T19:57:47.374Z,29.40
2018-12-14T20:00:15.740Z,28.20
2018-12-14T20:02:44.070Z,28.63
2018-12-14T20:05:12.482Z,27.77
2018-12-14T20:07:40.815Z,28.53
2018-12-14T20:10:09.264Z,27.20
2018-12-14T20:12:37.616Z,28.30
2018-12-14T20:15:07.662Z,29.03
2018-12-14T20:17:36.136Z,28.30
2018-12-14T20:20:05.862Z,28.20
2018-12-14T20:22:34.170Z,28.93
2018-12-14T20:25:02.588Z,24.70
2018-12-14T20:27:30.895Z,28.20
2018-12-14T20:29:59.343Z,28.13
2018-12-14T20:32:27.659Z,28.30
2018-12-14T20:34:56.391Z,28.17
2018-12-14T20:37:24.764Z,29.13
2018-12-14T20:39:53.084Z,24.60
2018-12-14T20:42:21.403Z,28.00
2018-12-14T20:44:49.817Z,27.27
2018-12-14T20:47:18.146Z,28.50
2018-12-14T20:49:46.474Z,28.00
2018-12-14T20:52:14.781Z,29.50
2018-12-14T20:54:43.110Z,26.20
2018-12-14T20:57:11.414Z,26.37
2018-12-14T20:59:39.827Z,27.73
2018-12-14T21:02:08.160Z,26.83
2018-12-14T21:04:36.495Z,26.07
2018-12-14T21:07:04.978Z,28.93
2018-12-14T21:09:33.297Z,28.70
2018-12-14T21:12:01.617Z,27.27
2018-12-14T21:14:30.300Z,28.53
2018-12-14T21:16:58.681Z,27.00
2018-12-14T21:19:27.027Z,26.17
2018-12-14T21:21:55.363Z,23.17
2018-12-14T21:24:23.883Z,25.03
2018-12-14T21:26:52.200Z,23.27
2018-12-14T21:29:20.526Z,25.03
2018-12-14T21:31:48.871Z,22.70
2018-12-14T21:34:17.193Z,26.27
2018-12-14T21:36:45.503Z,25.50
2018-12-14T21:39:13.847Z,24.67
2018-12-14T21:41:42.160Z,25.73
2018-12-14T21:44:10.466Z,23.50
2018-12-14T21:46:38.883Z,29.07
2018-12-14T21:49:07.342Z,27.20
2018-12-14T21:51:35.738Z,24.73
2018-12-14T21:54:04.123Z,22.30
2018-12-14T21:56:32.509Z,22.97
2018-12-14T21:59:00.830Z,22.53
2018-12-14T22:01:29.168Z,23.27
2018-12-14T22:03:57.502Z,22.73
2018-12-14T22:06:25.840Z,21.10
2018-12-14T22:08:54.154Z,25.00
2018-12-14T22:11:22.568Z,24.37
2018-12-14T22:13:50.884Z,23.83
2018-12-14T22:16:19.237Z,23.80
2018-12-14T22:18:48.276Z,25.00
2018-12-14T22:21:16.665Z,23.80
2018-12-14T22:23:44.990Z,24.63
2018-12-14T22:26:13.367Z,23.53
2018-12-14T22:28:41.747Z,22.57
2018-12-14T22:31:10.143Z,23.13
2018-12-14T22:33:38.464Z,24.30
2018-12-14T22:36:06.801Z,24.47
2018-12-14T22:38:35.101Z,21.93
2018-12-14T22:41:03.431Z,23.03
2018-12-14T22:43:31.742Z,24.90
2018-12-14T22:46:00.088Z,24.17
2018-12-14T22:48:28.396Z,23.53
2018-12-14T22:50:56.733Z,24.37
2018-12-14T22:53:25.053Z,21.23
2018-12-14T22:55:53.509Z,19.40
2018-12-14T22:58:21.901Z,21.50
2018-12-14T23:00:53.703Z,20.87
2018-12-14T23:03:22.135Z,21.70
2018-12-14T23:05:50.693Z,23.13
2018-12-14T23:08:19.077Z,23.03
2018-12-14T23:10:47.396Z,19.40
2018-12-14T23:13:15.777Z,20.40
2018-12-14T23:15:44.111Z,22.10
2018-12-14T23:18:12.513Z,22.43
2018-12-14T23:20:40.871Z,20.40
2018-12-14T23:23:09.247Z,20.70
2018-12-14T23:28:27.608Z,18.67
2018-12-14T23:30:55.930Z,19.90
2018-12-14T23:33:24.280Z,18.93
2018-12-14T23:35:52.712Z,19.73
2018-12-14T23:38:21.052Z,20.30
2018-12-14T23:40:49.478Z,20.83
2018-12-14T23:43:17.804Z,19.00
2018-12-14T23:45:47.023Z,20.03
2018-12-14T23:48:15.364Z,19.00
2018-12-14T23:50:43.695Z,19.20
2018-12-14T23:53:12.036Z,16.87
2018-12-14T23:55:40.398Z,17.67
2018-12-14T23:58:08.729Z,18.93
